createdAt,value
2022-12-18T00:01:25.660Z,97945.97
2022-12-18T00:03:52.354Z,97947.34
2022-12-18T00:06:18.842Z,97944.69
2022-12-18T00:08:45.289Z,97955.84
2022-12-18T00:11:19.016Z,97960.19
2022-12-18T00:14:05.424Z,97966.09
2022-12-18T00:19:14.439Z,97973.63
2022-12-18T00:21:40.956Z,97954.03
2022-12-18T00:24:07.593Z,97960.31
2022-12-18T00:26:35.603Z,97968.44
2022-12-18T00:29:20.431Z,97971.94
2022-12-18T00:31:46.974Z,97967.75
2022-12-18T00:34:13.401Z,97950.81
2022-12-18T00:36:39.960Z,97953.91
2022-12-18T00:39:06.381Z,97950.53
2022-12-18T00:41:35.244Z,97953.63
2022-12-18T00:44:01.736Z,97958.13
2022-12-18T00:46:30.405Z,97951.56
2022-12-18T00:48:57.841Z,97963.19
2022-12-18T00:51:24.320Z,97958.44
2022-12-18T00:53:51.213Z,97953.94
2022-12-18T00:56:18.512Z,97952.97
2022-12-18T00:58:48.219Z,97956.63
2022-12-18T01:01:15.021Z,97964.59
2022-12-18T01:03:48.011Z,97962.78
2022-12-18T01:06:15.595Z,97965.28
2022-12-18T01:08:48.335Z,97970.31
2022-12-18T01:11:14.691Z,97977.31
2022-12-18T01:13:46.776Z,97977.56
2022-12-18T01:16:13.442Z,97978.84
2022-12-18T01:18:39.889Z,97988.94
2022-12-18T01:21:06.297Z,97990.88
2022-12-18T01:23:32.718Z,97989.38
2022-12-18T01:25:59.131Z,97990.34
2022-12-18T01:28:25.590Z,97991.16
2022-12-18T01:30:52.023Z,98001.13
2022-12-18T01:33:18.560Z,98009.09
2022-12-18T01:35:44.915Z,98019.88
2022-12-18T01:38:11.295Z,98020.69
2022-12-18T01:40:38.118Z,98018.19
2022-12-18T01:43:06.901Z,98019.16
2022-12-18T01:45:33.432Z,98019.44
2022-12-18T01:47:59.886Z,98022.09
2022-12-18T01:50:26.349Z,98030.63
2022-12-18T01:52:52.744Z,98030.78
2022-12-18T01:55:19.201Z,98039.00
2022-12-18T01:57:45.823Z,98040.28
2022-12-18T02:00:13.990Z,98044.06
2022-12-18T02:02:40.502Z,98052.19
2022-12-18T02:05:06.995Z,98051.91
2022-12-18T02:07:33.403Z,98047.69
2022-12-18T02:09:59.947Z,98052.31
2022-12-18T02:12:26.374Z,98055.09
2022-12-18T02:14:52.771Z,98041.81
2022-12-18T02:17:19.203Z,98051.59
2022-12-18T02:19:45.595Z,98047.00
2022-12-18T02:22:11.998Z,98056.63
2022-12-18T02:24:41.363Z,98058.19
2022-12-18T02:27:07.790Z,98064.59
2022-12-18T02:29:34.271Z,98070.78
2022-12-18T02:32:00.838Z,98073.69
2022-12-18T02:34:27.251Z,98077.88
2022-12-18T02:36:53.820Z,98070.19
2022-12-18T02:39:20.246Z,98073.00
2022-12-18T02:41:49.447Z,98078.59
2022-12-18T02:44:15.887Z,98072.97
2022-12-18T02:46:42.279Z,98075.34
2022-12-18T02:49:08.706Z,98073.13
2022-12-18T02:51:35.069Z,98069.38
2022-12-18T02:54:01.477Z,98067.81
2022-12-18T02:56:27.823Z,98073.13
2022-12-18T02:58:54.260Z,98077.19
2022-12-18T03:01:20.740Z,98077.34
2022-12-18T03:03:47.218Z,98075.09
2022-12-18T03:06:23.721Z,98076.34
2022-12-18T03:08:50.148Z,98075.78
2022-12-18T03:11:16.550Z,98066.69
2022-12-18T03:13:43.203Z,98070.59
2022-12-18T03:16:09.662Z,98081.22
2022-12-18T03:18:36.043Z,98083.59
2022-12-18T03:21:02.477Z,98088.50
2022-12-18T03:23:28.868Z,98084.03
2022-12-18T03:25:55.294Z,98095.47
2022-12-18T03:28:21.863Z,98093.69
2022-12-18T03:30:48.476Z,98087.66
2022-12-18T03:33:14.878Z,98086.13
2022-12-18T03:35:42.021Z,98086.25
2022-12-18T03:38:10.894Z,98089.03
2022-12-18T03:40:38.016Z,98082.06
2022-12-18T03:43:04.477Z,98085.69
2022-12-18T03:45:30.888Z,98078.84
2022-12-18T03:50:23.783Z,98077.59
2022-12-18T03:52:56.393Z,98074.78
2022-12-18T03:55:22.755Z,98071.31
2022-12-18T03:57:49.158Z,98067.94
2022-12-18T04:00:16.013Z,98067.38
2022-12-18T04:02:43.127Z,98068.22
2022-12-18T04:05:09.606Z,98070.03
2022-12-18T04:07:36.029Z,98073.81
2022-12-18T04:10:02.420Z,98080.22
2022-12-18T04:12:28.858Z,98080.94
2022-12-18T04:14:55.280Z,98084.00
2022-12-18T04:17:21.701Z,98083.88
2022-12-18T04:19:48.168Z,98082.91
2022-12-18T04:22:14.522Z,98083.72
2022-12-18T04:24:40.913Z,98082.06
2022-12-18T04:27:07.299Z,98081.94
2022-12-18T04:29:33.684Z,98088.06
2022-12-18T04:32:00.129Z,98088.50
2022-12-18T04:34:26.656Z,98089.19
2022-12-18T04:36:53.017Z,98089.31
2022-12-18T04:39:19.540Z,98090.84
2022-12-18T04:41:45.968Z,98091.97
2022-12-18T04:44:12.637Z,98096.72
2022-12-18T04:46:39.127Z,98094.75
2022-12-18T04:49:05.589Z,98092.84
2022-12-18T04:51:34.178Z,98101.50
2022-12-18T04:54:00.774Z,98106.25
2022-12-18T04:56:27.167Z,98105.97
2022-12-18T04:58:53.554Z,98091.44
2022-12-18T05:01:20.015Z,98101.50
2022-12-18T05:03:46.662Z,98106.09
2022-12-18T05:06:13.088Z,98108.91
2022-12-18T05:08:39.437Z,98110.03
2022-12-18T05:11:05.870Z,98112.81
2022-12-18T05:13:32.245Z,98113.94
2022-12-18T05:15:58.782Z,98111.13
2022-12-18T05:18:26.502Z,98118.00
2022-12-18T05:20:52.918Z,98122.19
2022-12-18T05:23:19.263Z,98119.53
2022-12-18T05:25:46.896Z,98132.91
2022-12-18T05:28:13.263Z,98131.94
2022-12-18T05:30:39.783Z,98130.16
2022-12-18T05:33:06.129Z,98140.06
2022-12-18T05:35:32.512Z,98127.59
2022-12-18T05:37:58.955Z,98132.63
2022-12-18T05:40:25.345Z,98127.75
2022-12-18T05:42:51.681Z,98134.28
2022-12-18T05:45:26.678Z,98134.84
2022-12-18T05:47:53.252Z,98139.31
2022-12-18T05:50:20.797Z,98133.56
2022-12-18T05:52:47.827Z,98136.63
2022-12-18T05:55:14.185Z,98149.75
2022-12-18T05:57:40.512Z,98147.38
2022-12-18T06:00:06.981Z,98150.19
2022-12-18T06:02:33.655Z,98147.38
2022-12-18T06:05:01.307Z,98147.38
2022-12-18T06:07:27.712Z,98155.47
2022-12-18T06:09:54.093Z,98153.25
2022-12-18T06:12:20.719Z,98154.38
2022-12-18T06:14:47.093Z,98157.78
2022-12-18T06:17:13.424Z,98151.50
2022-12-18T06:19:39.833Z,98161.25
2022-12-18T06:22:06.296Z,98155.13
2022-12-18T06:24:32.695Z,98151.75
2022-12-18T06:26:59.082Z,98156.81
2022-12-18T06:29:25.494Z,98157.78
2022-12-18T06:31:52.050Z,98164.03
2022-12-18T06:34:18.444Z,98174.94
2022-12-18T06:36:47.373Z,98174.13
2022-12-18T06:39:16.777Z,98172.56
2022-12-18T06:41:43.243Z,98178.56
2022-12-18T06:44:09.595Z,98185.28
2022-12-18T06:46:37.444Z,98195.78
2022-12-18T06:49:03.900Z,98192.97
2022-12-18T06:51:30.297Z,98199.41
2022-12-18T06:53:56.863Z,98204.59
2022-12-18T06:56:23.344Z,98205.56
2022-12-18T06:58:49.736Z,98212.09
2022-12-18T07:01:16.229Z,98222.03
2022-12-18T07:03:43.268Z,98221.75
2022-12-18T07:06:10.363Z,98230.41
2022-12-18T07:08:36.776Z,98233.53
2022-12-18T07:11:03.114Z,98237.97
2022-12-18T07:13:29.544Z,98238.84
2022-12-18T07:15:56.039Z,98241.34
2022-12-18T07:18:22.417Z,98239.66
2022-12-18T07:20:48.744Z,98244.16
2022-12-18T07:23:15.398Z,98252.94
2022-12-18T07:25:41.718Z,98255.47
2022-12-18T07:28:10.607Z,98254.50
2022-12-18T07:30:41.851Z,98253.06
2022-12-18T07:33:08.611Z,98262.59
2022-12-18T07:35:38.011Z,98258.66
2022-12-18T07:38:04.452Z,98252.63
2022-12-18T07:40:30.868Z,98253.63
2022-12-18T07:42:57.291Z,98251.66
2022-12-18T07:45:23.689Z,98259.50
2022-12-18T07:47:50.122Z,98261.88
2022-12-18T07:50:16.513Z,98273.50
2022-12-18T07:52:42.874Z,98260.91
2022-12-18T07:55:09.230Z,98258.53
2022-12-18T07:57:50.803Z,98251.00
2022-12-18T08:00:18.372Z,98258.84
2022-12-18T08:02:44.829Z,98262.94
2022-12-18T08:05:11.271Z,98266.53
2022-12-18T08:07:37.619Z,98267.38
2022-12-18T08:10:06.853Z,98267.38
2022-12-18T08:12:33.232Z,98269.06
2022-12-18T08:14:59.672Z,98267.50
2022-12-18T08:17:26.069Z,98269.06
2022-12-18T08:19:52.600Z,98262.78
2022-12-18T08:22:18.966Z,98257.22
2022-12-18T08:24:45.351Z,98259.72
2022-12-18T08:29:58.003Z,98271.31
2022-12-18T08:32:25.618Z,98273.69
2022-12-18T08:34:52.130Z,98280.56
2022-12-18T08:37:18.479Z,98271.78
2022-12-18T08:39:44.853Z,98259.19
2022-12-18T08:42:11.277Z,98263.38
2022-12-18T08:44:37.652Z,98247.59
2022-12-18T08:47:04.037Z,98245.75
2022-12-18T08:49:30.534Z,98239.63
2022-12-18T08:51:56.908Z,98229.97
2022-12-18T08:54:23.333Z,98231.53
2022-12-18T08:56:49.705Z,98230.09
2022-12-18T08:59:19.682Z,98237.94
2022-12-18T09:01:46.788Z,98245.91
2022-12-18T09:04:13.277Z,98235.28
2022-12-18T09:06:39.674Z,98232.34
2022-12-18T09:09:06.014Z,98228.72
2022-12-18T09:11:32.448Z,98243.84
2022-12-18T09:13:58.813Z,98250.44
2022-12-18T09:16:30.316Z,98255.97
2022-12-18T09:18:58.495Z,98250.28
2022-12-18T09:21:24.923Z,98264.13
2022-12-18T09:23:53.707Z,98253.78
2022-12-18T09:26:20.084Z,98269.16
2022-12-18T09:28:49.011Z,98268.06
2022-12-18T09:31:15.585Z,98266.13
2022-12-18T09:33:44.848Z,98271.72
2022-12-18T09:36:11.542Z,98276.66
2022-12-18T09:53:05.061Z,98276.00
2022-12-18T09:55:37.219Z,98271.09
2022-12-18T09:58:04.343Z,98282.31
2022-12-18T10:00:30.786Z,98280.22
2022-12-18T10:02:57.391Z,98283.31
2022-12-18T10:05:29.085Z,98280.22
2022-12-18T10:07:55.559Z,98278.00
2022-12-18T10:10:22.053Z,98273.38
2022-12-18T10:13:04.514Z,98273.81
2022-12-18T10:15:38.400Z,98266.66
2022-12-18T10:18:04.824Z,98269.91
2022-12-18T10:20:31.277Z,98269.50
2022-12-18T10:23:05.572Z,98269.78
2022-12-18T10:25:31.955Z,98268.66
2022-12-18T10:28:01.438Z,98269.94
2022-12-18T10:30:28.052Z,98264.31
2022-12-18T10:33:09.885Z,98260.13
2022-12-18T10:35:36.280Z,98264.03
2022-12-18T10:38:02.689Z,98256.06
2022-12-18T10:40:29.068Z,98254.81
2022-12-18T10:42:55.616Z,98252.69
2022-12-18T10:45:21.985Z,98245.13
2022-12-18T10:47:55.654Z,98247.22
2022-12-18T10:50:22.210Z,98248.59
2022-12-18T10:52:50.680Z,98248.47
2022-12-18T10:55:17.124Z,98251.81
2022-12-18T10:57:54.584Z,98258.81
2022-12-18T11:00:20.998Z,98253.34
2022-12-18T11:02:47.503Z,98262.06
2022-12-18T11:05:13.970Z,98252.94
2022-12-18T11:07:41.776Z,98264.97
2022-12-18T11:10:08.211Z,98261.19
2022-12-18T11:12:34.603Z,98259.63
2022-12-18T11:15:03.261Z,98261.03
2022-12-18T11:17:32.654Z,98254.56
2022-12-18T11:19:59.018Z,98246.00
2022-12-18T11:22:26.315Z,98244.03
2022-12-18T11:25:30.901Z,98241.09
2022-12-18T11:27:50.865Z,98245.00
2022-12-18T11:30:18.113Z,98241.75
2022-12-18T11:32:50.111Z,98240.19
2022-12-18T11:35:20.335Z,98238.28
2022-12-18T11:37:49.218Z,98238.28
2022-12-18T11:40:18.512Z,98246.53
2022-12-18T11:42:44.910Z,98240.91
2022-12-18T11:45:11.391Z,98242.03
2022-12-18T11:47:37.771Z,98234.03
2022-12-18T11:50:04.226Z,98236.25
2022-12-18T11:52:30.615Z,98233.75
2022-12-18T11:54:57.093Z,98235.81
2022-12-18T11:57:23.483Z,98227.69
2022-12-18T11:59:49.809Z,98226.31
2022-12-18T12:02:16.352Z,98214.22
2022-12-18T12:04:42.888Z,98215.34
2022-12-18T12:07:09.323Z,98201.00
2022-12-18T12:09:36.986Z,98195.69
2022-12-18T12:12:03.380Z,98201.31
2022-12-18T12:14:29.791Z,98187.69
2022-12-18T12:16:56.156Z,98196.84
2022-12-18T12:19:22.526Z,98194.34
2022-12-18T12:21:48.872Z,98189.00
2022-12-18T12:24:15.214Z,98184.34
2022-12-18T12:26:41.569Z,98185.31
2022-12-18T12:29:10.457Z,98176.34
2022-12-18T12:31:37.203Z,98168.34
2022-12-18T12:34:03.682Z,98165.09
2022-12-18T12:36:32.199Z,98168.78
2022-12-18T12:38:58.629Z,98164.44
2022-12-18T12:41:24.989Z,98157.97
2022-12-18T12:43:51.895Z,98152.38
2022-12-18T12:46:21.007Z,98153.34
2022-12-18T12:48:48.875Z,98144.38
2022-12-18T12:51:15.543Z,98143.75
2022-12-18T12:53:42.368Z,98149.94
2022-12-18T12:56:09.185Z,98151.44
2022-12-18T12:58:35.804Z,98156.25
2022-12-18T13:01:02.204Z,98161.75
2022-12-18T13:03:28.871Z,98155.56
2022-12-18T13:05:55.294Z,98163.44
2022-12-18T13:08:22.216Z,98161.75
2022-12-18T13:10:48.798Z,98162.25
2022-12-18T13:13:23.751Z,98165.09
2022-12-18T13:15:50.901Z,98170.81
2022-12-18T13:18:17.935Z,98164.22
2022-12-18T13:23:30.723Z,98149.41
2022-12-18T13:25:57.202Z,98150.69
2022-12-18T13:31:13.928Z,98139.03
2022-12-18T13:34:02.058Z,98155.03
2022-12-18T13:36:35.174Z,98143.53
2022-12-18T13:39:02.503Z,98147.56
2022-12-18T13:41:28.899Z,98133.25
2022-12-18T13:43:58.137Z,98131.97
2022-12-18T13:46:26.939Z,98127.47
2022-12-18T13:48:53.412Z,98122.84
2022-12-18T13:51:20.043Z,98121.00
2022-12-18T13:53:46.502Z,98113.16
2022-12-18T13:58:53.658Z,98122.22
2022-12-18T14:01:20.198Z,98126.19
2022-12-18T14:03:47.417Z,98123.31
2022-12-18T14:06:14.535Z,98125.50
2022-12-18T14:08:42.007Z,98127.47
2022-12-18T14:11:08.702Z,98135.34
2022-12-18T14:13:38.418Z,98139.34
2022-12-18T14:16:04.886Z,98139.66
2022-12-18T14:18:31.302Z,98138.13
2022-12-18T14:20:57.685Z,98138.13
2022-12-18T14:23:24.128Z,98128.31
2022-12-18T14:25:50.514Z,98130.13
2022-12-18T14:28:16.887Z,98137.59
2022-12-18T14:30:43.494Z,98136.00
2022-12-18T14:33:09.954Z,98140.75
2022-12-18T14:35:36.528Z,98129.09
2022-12-18T14:38:03.368Z,98132.59
2022-12-18T14:40:29.760Z,98128.13
2022-12-18T14:42:56.195Z,98129.41
2022-12-18T14:45:22.624Z,98134.19
2022-12-18T14:47:49.092Z,98130.69
2022-12-18T14:50:15.519Z,98135.88
2022-12-18T14:52:42.107Z,98134.03
2022-12-18T14:55:09.803Z,98142.88
2022-12-18T14:57:36.215Z,98143.19
2022-12-18T15:00:02.691Z,98148.22
2022-12-18T15:02:29.688Z,98140.88
2022-12-18T15:04:56.274Z,98154.53
2022-12-18T15:07:22.617Z,98150.88
2022-12-18T15:09:48.972Z,98148.53
2022-12-18T15:12:15.388Z,98155.50
2022-12-18T15:14:41.807Z,98150.03
2022-12-18T15:17:08.156Z,98149.34
2022-12-18T15:19:35.175Z,98150.16
2022-12-18T15:22:06.142Z,98143.75
2022-12-18T15:24:33.164Z,98148.66
2022-12-18T15:26:59.971Z,98150.31
2022-12-18T15:29:26.487Z,98152.16
2022-12-18T15:31:53.046Z,98160.16
2022-12-18T15:34:19.423Z,98164.09
2022-12-18T15:36:45.815Z,98166.63
2022-12-18T15:39:12.296Z,98170.97
2022-12-18T15:41:38.651Z,98176.97
2022-12-18T15:44:05.038Z,98184.75
2022-12-18T15:46:31.862Z,98183.91
2022-12-18T15:49:02.239Z,98182.75
2022-12-18T15:51:29.404Z,98178.13
2022-12-18T15:53:57.128Z,98178.50
2022-12-18T15:56:24.092Z,98183.84
2022-12-18T15:58:50.721Z,98173.84
2022-12-18T16:01:17.225Z,98164.66
2022-12-18T16:03:44.236Z,98166.78
2022-12-18T16:06:11.055Z,98169.03
2022-12-18T16:08:37.418Z,98168.78
2022-12-18T16:11:05.438Z,98171.47
2022-12-18T16:13:31.781Z,98178.06
2022-12-18T16:15:58.320Z,98171.59
2022-12-18T16:18:24.864Z,98175.09
2022-12-18T16:20:51.340Z,98170.72
2022-12-18T16:23:17.732Z,98173.53
2022-12-18T16:25:44.146Z,98164.00
2022-12-18T16:28:10.482Z,98170.22
2022-12-18T16:30:39.019Z,98163.34
2022-12-18T16:33:07.491Z,98168.53
2022-12-18T16:35:34.141Z,98152.84
2022-12-18T16:38:01.923Z,98158.59
2022-12-18T16:40:28.302Z,98164.09
2022-12-18T16:42:54.668Z,98170.97
2022-12-18T16:45:22.068Z,98167.31
2022-12-18T16:47:48.415Z,98171.66
2022-12-18T16:50:14.848Z,98154.00
2022-12-18T16:52:41.313Z,98153.31
2022-12-18T16:55:07.723Z,98159.94
2022-12-18T16:57:34.202Z,98164.28
2022-12-18T17:00:05.172Z,98172.69
2022-12-18T17:02:33.496Z,98164.84
2022-12-18T17:05:00.159Z,98177.19
2022-12-18T17:07:26.538Z,98177.03
2022-12-18T17:09:52.992Z,98179.69
2022-12-18T17:12:19.459Z,98191.47
2022-12-18T17:14:45.839Z,98185.03
2022-12-18T17:17:22.346Z,98192.88
2022-12-18T17:19:49.611Z,98194.41
2022-12-18T17:22:16.001Z,98194.94
2022-12-18T17:24:42.367Z,98204.63
2022-12-18T17:27:08.804Z,98201.13
2022-12-18T17:29:35.237Z,98195.34
2022-12-18T17:32:01.695Z,98182.03
2022-12-18T17:34:28.045Z,98182.75
2022-12-18T17:36:54.953Z,98179.94
2022-12-18T17:39:21.307Z,98172.91
2022-12-18T17:41:47.739Z,98162.41
2022-12-18T17:44:14.105Z,98153.56
2022-12-18T17:46:40.547Z,98141.75
2022-12-18T17:49:06.956Z,98137.97
2022-12-18T17:51:33.546Z,98137.72
2022-12-18T17:53:59.911Z,98140.78
2022-12-18T17:56:26.328Z,98144.44
2022-12-18T17:58:53.529Z,98145.00
2022-12-18T18:01:19.947Z,98154.63
2022-12-18T18:03:47.364Z,98163.09
2022-12-18T18:06:16.719Z,98179.06
2022-12-18T18:08:43.130Z,98201.91
2022-12-18T18:11:09.577Z,98200.94
2022-12-18T18:13:39.713Z,98205.81
2022-12-18T18:16:08.556Z,98204.84
2022-12-18T18:18:34.996Z,98215.34
2022-12-18T18:21:01.360Z,98203.31
2022-12-18T18:23:28.302Z,98194.75
2022-12-18T18:25:54.739Z,98185.09
2022-12-18T18:28:21.797Z,98163.09
2022-12-18T18:30:48.368Z,98145.44
2022-12-18T18:33:14.948Z,98128.75
2022-12-18T18:35:56.542Z,98116.72
2022-12-18T18:38:22.950Z,98120.34
2022-12-18T18:40:49.381Z,98119.81
2022-12-18T18:43:15.875Z,98138.63
2022-12-18T18:45:42.487Z,98151.22
2022-12-18T18:48:13.760Z,98168.91
2022-12-18T18:50:40.095Z,98181.22
2022-12-18T18:53:06.512Z,98186.47
2022-12-18T18:55:33.151Z,98193.38
2022-12-18T18:57:59.565Z,98188.72
2022-12-18T19:00:27.569Z,98185.75
2022-12-18T19:03:00.307Z,98182.94
2022-12-18T19:05:27.048Z,98183.47
2022-12-18T19:07:53.426Z,98175.66
2022-12-18T19:10:19.762Z,98171.03
2022-12-18T19:12:47.650Z,98175.09
2022-12-18T19:15:14.039Z,98183.59
2022-12-18T19:17:40.836Z,98178.94
2022-12-18T19:20:07.678Z,98174.78
2022-12-18T19:22:34.815Z,98181.91
2022-12-18T19:25:01.171Z,98189.75
2022-12-18T19:27:27.621Z,98191.75
2022-12-18T19:29:53.992Z,98195.09
2022-12-18T19:32:20.430Z,98193.97
2022-12-18T19:34:47.096Z,98185.81
2022-12-18T19:37:14.504Z,98185.66
2022-12-18T19:39:40.977Z,98177.41
2022-12-18T19:42:07.357Z,98179.94
2022-12-18T19:44:33.742Z,98178.75
2022-12-18T19:47:00.965Z,98198.13
2022-12-18T19:49:27.330Z,98200.09
2022-12-18T19:51:53.703Z,98196.13
2022-12-18T19:54:20.144Z,98180.16
2022-12-18T19:56:46.544Z,98172.88
2022-12-18T19:59:12.906Z,98170.88
2022-12-18T20:01:39.510Z,98182.66
2022-12-18T20:04:06.116Z,98181.84
2022-12-18T20:06:33.164Z,98180.72
2022-12-18T20:09:00.738Z,98174.41
2022-12-18T20:11:29.663Z,98179.44
2022-12-18T20:13:56.087Z,98175.75
2022-12-18T20:16:22.508Z,98171.28
2022-12-18T20:18:48.957Z,98186.41
2022-12-18T20:21:15.504Z,98188.25
2022-12-18T20:23:42.391Z,98186.34
2022-12-18T20:26:09.057Z,98194.19
2022-12-18T20:28:35.416Z,98201.00
2022-12-18T20:31:01.923Z,98188.41
2022-12-18T20:33:28.658Z,98182.09
2022-12-18T20:35:55.179Z,98160.75
2022-12-18T20:38:21.839Z,98162.13
2022-12-18T20:40:56.668Z,98166.09
2022-12-18T20:43:23.499Z,98164.94
2022-12-18T20:45:51.088Z,98150.47
2022-12-18T20:48:20.093Z,98145.16
2022-12-18T20:50:50.482Z,98135.03
2022-12-18T20:53:16.868Z,98129.56
2022-12-18T20:55:43.273Z,98128.41
2022-12-18T20:58:09.719Z,98136.69
2022-12-18T21:00:40.052Z,98148.66
2022-12-18T21:03:26.593Z,98139.09
2022-12-18T21:05:53.064Z,98147.91
2022-12-18T21:08:19.453Z,98137.25
2022-12-18T21:10:45.933Z,98146.94
2022-12-18T21:13:13.130Z,98140.88
2022-12-18T21:15:47.894Z,98139.81
2022-12-18T21:18:15.335Z,98133.03
2022-12-18T21:20:42.096Z,98130.78
2022-12-18T21:23:13.210Z,98121.66
2022-12-18T21:25:43.297Z,98126.81
2022-12-18T21:28:09.613Z,98121.50
2022-12-18T21:30:35.966Z,98127.09
2022-12-18T21:35:50.197Z,98122.69
2022-12-18T21:38:20.284Z,98131.34
2022-12-18T21:40:46.819Z,98142.16
2022-12-18T21:43:13.280Z,98138.53
2022-12-18T21:45:44.908Z,98142.47
2022-12-18T21:48:21.679Z,98142.09
2022-12-18T21:50:49.185Z,98133.81
2022-12-18T21:53:15.653Z,98139.81
2022-12-18T21:55:44.888Z,98143.19
2022-12-18T21:58:14.372Z,98138.84
2022-12-18T22:00:48.872Z,98131.81
2022-12-18T22:03:18.446Z,98130.69
2022-12-18T22:05:45.706Z,98126.34
2022-12-18T22:08:13.235Z,98130.00
2022-12-18T22:10:39.792Z,98124.13
2022-12-18T22:13:09.591Z,98124.94
2022-12-18T22:15:36.045Z,98120.59
2022-12-18T22:18:02.467Z,98119.56
2022-12-18T22:20:31.625Z,98114.38
2022-12-18T22:22:58.105Z,98111.94
2022-12-18T22:25:27.192Z,98114.13
2022-12-18T22:27:56.290Z,98127.19
2022-12-18T22:30:22.788Z,98131.81
2022-12-18T22:32:50.180Z,98133.19
2022-12-18T22:35:19.524Z,98140.88
2022-12-18T22:37:46.101Z,98143.25
2022-12-18T22:40:13.101Z,98153.75
2022-12-18T22:42:40.447Z,98148.31
2022-12-18T22:45:06.854Z,98152.78
2022-12-18T22:47:33.283Z,98150.28
2022-12-18T22:49:59.653Z,98159.66
2022-12-18T22:52:28.840Z,98165.66
2022-12-18T22:54:56.319Z,98161.03
2022-12-18T22:57:22.698Z,98148.38
2022-12-18T22:59:50.999Z,98147.53
2022-12-18T23:02:20.029Z,98149.75
2022-12-18T23:07:26.907Z,98128.88
2022-12-18T23:10:00.584Z,98134.88
2022-12-18T23:12:27.510Z,98140.06
2022-12-18T23:14:54.199Z,98144.41
2022-12-18T23:17:20.591Z,98153.19
2022-12-18T23:19:49.204Z,98158.22
2022-12-18T23:22:15.912Z,98161.50
2022-12-18T23:24:42.385Z,98179.84
2022-12-18T23:27:11.349Z,98184.47
2022-12-18T23:29:38.017Z,98172.78
2022-12-18T23:32:04.413Z,98160.09
2022-12-18T23:34:30.783Z,98148.78
2022-12-18T23:36:59.962Z,98132.06
2022-12-18T23:39:29.762Z,98141.00
2022-12-18T23:41:57.012Z,98151.38
2022-12-18T23:44:23.435Z,98156.56
2022-12-18T23:46:50.011Z,98150.25
2022-12-18T23:49:16.507Z,98138.56
2022-12-18T23:51:42.944Z,98142.59
2022-12-18T23:54:09.895Z,98149.63
2022-12-18T23:56:36.276Z,98148.91
2022-12-18T23:59:05.585Z,98141.63
